Milouin — FT9009 — position and weather

sailwx.info

Track history (hours):
 
Tides and Currents Weather Stations Pressure Air Temp Water Temp Dewpoint Dewpoint Depression Visibility Wind Speed Wind Dir Waves Ship Positions

Milouin

Last reported at 2015-Jan-06 00:13 UTC. Time now 2015-Jan-29 12:25 UTC.
Position N 47°17' W 002°01'.
Warning: this ship's position is 23 days out of date.

Length 36 m; draft 2.5 m.

Type: Ship. MMSI: 227003190.

Date/timePositionNaut miles runAvg speedWind from/ knotsBaromVisibWave heightAir tempDewpointWater temp
2015-Jan-06 00:13N 47°17' W 002°01'0 0.0
2015-Jan-05 10:33N 47°17' W 002°01'5 1.6
2015-Jan-05 07:26N 47°18' W 002°08'0 0.3
2015-Jan-05 06:33N 47°18' W 002°09'  
2015-Jan-02 20:15N 47°17' W 002°01'0 0.0
2015-Jan-02 19:18N 47°17' W 002°01'0 0.0
2015-Jan-02 18:33N 47°17' W 002°01'0 0.0
2015-Jan-01 22:32N 47°17' W 002°01'0 0.0
2015-Jan-01 21:33N 47°17' W 002°01'0 0.0
2015-Jan-01 19:20N 47°17' W 002°01'0 0.0
2015-Jan-01 18:19N 47°17' W 002°01'0 0.0
2015-Jan-01 10:33N 47°17' W 002°01'0 0.0
2015-Jan-01 09:27N 47°17' W 002°01'0 0.0
2015-Jan-01 08:26N 47°17' W 002°01'0 0.0
2015-Jan-01 05:10N 47°17' W 002°01'0 0.0
2014-Dec-31 20:30N 47°17' W 002°01'0 0.0
2014-Dec-31 18:17N 47°17' W 002°01'0 0.2
2014-Dec-31 16:08N 47°18' W 002°02'3 0.8
2014-Dec-31 12:14N 47°18' W 002°06'3 1.1
2014-Dec-31 09:12N 47°17' W 002°01'0 0.0
2014-Dec-31 08:15N 47°17' W 002°01'0 0.0
2014-Dec-31 03:30N 47°17' W 002°01'  
Track history (hours):
 
Tides and Currents Weather Stations Pressure Air Temp Water Temp Dewpoint Dewpoint Depression Visibility Wind Speed Wind Dir Waves Ship Positions

Milouin

Last reported at 2015-Jan-06 00:13 UTC. Time now 2015-Jan-29 12:25 UTC.
Position N 47°17' W 002°01'.
Warning: this ship's position is 23 days out of date.

Length 36 m; draft 2.5 m.

Type: Ship. MMSI: 227003190.

Date/timePositionNaut miles runAvg speedWind from/ knotsBaromVisibWave heightAir tempDewpointWater temp
2015-Jan-06 00:13N 47°17' W 002°01'0 0.0
2015-Jan-05 10:33N 47°17' W 002°01'5 1.6
2015-Jan-05 07:26N 47°18' W 002°08'0 0.3
2015-Jan-05 06:33N 47°18' W 002°09'  
2015-Jan-02 20:15N 47°17' W 002°01'0 0.0
2015-Jan-02 19:18N 47°17' W 002°01'0 0.0
2015-Jan-02 18:33N 47°17' W 002°01'0 0.0
2015-Jan-01 22:32N 47°17' W 002°01'0 0.0
2015-Jan-01 21:33N 47°17' W 002°01'0 0.0
2015-Jan-01 19:20N 47°17' W 002°01'0 0.0
2015-Jan-01 18:19N 47°17' W 002°01'0 0.0
2015-Jan-01 10:33N 47°17' W 002°01'0 0.0
2015-Jan-01 09:27N 47°17' W 002°01'0 0.0
2015-Jan-01 08:26N 47°17' W 002°01'0 0.0
2015-Jan-01 05:10N 47°17' W 002°01'0 0.0
2014-Dec-31 20:30N 47°17' W 002°01'0 0.0
2014-Dec-31 18:17N 47°17' W 002°01'0 0.2
2014-Dec-31 16:08N 47°18' W 002°02'3 0.8
2014-Dec-31 12:14N 47°18' W 002°06'3 1.1
2014-Dec-31 09:12N 47°17' W 002°01'0 0.0
2014-Dec-31 08:15N 47°17' W 002°01'0 0.0
2014-Dec-31 03:30N 47°17' W 002°01'  

Dump ship's entire track history